createdAt,value
2018-06-20T00:00:56.986Z,96.27
2018-06-20T00:02:05.633Z,96.32
2018-06-20T00:03:14.284Z,96.03
2018-06-20T00:04:22.928Z,96.42
2018-06-20T00:05:31.841Z,96.27
2018-06-20T00:06:40.750Z,96.27
2018-06-20T00:07:49.400Z,96.37
2018-06-20T00:08:58.046Z,96.51
2018-06-20T00:10:06.695Z,96.32
2018-06-20T00:11:15.342Z,95.94
2018-06-20T00:12:23.992Z,96.32
2018-06-20T00:13:32.650Z,96.51
2018-06-20T00:14:41.295Z,96.51
2018-06-20T00:15:49.940Z,96.51
2018-06-20T00:16:58.595Z,95.94
2018-06-20T00:18:07.244Z,96.22
2018-06-20T00:19:15.883Z,95.84
2018-06-20T00:20:24.798Z,96.51
2018-06-20T00:21:33.449Z,95.94
2018-06-20T00:22:42.099Z,95.84
2018-06-20T00:23:50.743Z,95.94
2018-06-20T00:24:59.446Z,95.94
2018-06-20T00:26:08.041Z,95.94
2018-06-20T00:27:16.702Z,96.22
2018-06-20T00:28:25.348Z,96.32
2018-06-20T00:29:33.995Z,95.94
2018-06-20T00:30:42.640Z,96.32
2018-06-20T00:31:51.548Z,96.32
2018-06-20T00:33:00.206Z,95.94
2018-06-20T00:34:08.851Z,96.56
2018-06-20T00:35:17.518Z,96.42
2018-06-20T00:36:26.143Z,96.42
2018-06-20T00:37:34.799Z,96.42
2018-06-20T00:38:43.445Z,96.51
2018-06-20T00:39:52.096Z,96.7
2018-06-20T00:41:00.734Z,96.42
2018-06-20T00:42:09.391Z,96.8
2018-06-20T00:43:18.037Z,96.51
2018-06-20T00:44:26.686Z,96.8
2018-06-20T00:45:35.326Z,96.61
2018-06-20T00:46:44.504Z,96.94
2018-06-20T00:47:53.158Z,96.51
2018-06-20T00:49:01.811Z,96.99
2018-06-20T00:50:10.460Z,96.75
2018-06-20T00:51:19.099Z,96.8
2018-06-20T00:52:27.751Z,96.61
2018-06-20T00:53:36.395Z,96.42
2018-06-20T00:54:45.054Z,96.61
2018-06-20T00:55:53.695Z,96.61
2018-06-20T00:57:02.608Z,96.8
2018-06-20T00:58:11.251Z,96.99
2018-06-20T00:59:20.168Z,96.89
2018-06-20T01:00:28.806Z,96.99
2018-06-20T01:01:37.456Z,96.47
2018-06-20T01:02:46.103Z,96.42
2018-06-20T01:03:54.755Z,96.32
2018-06-20T01:05:03.404Z,96.42
2018-06-20T01:06:12.307Z,96.61
2018-06-20T01:07:20.962Z,96.47
2018-06-20T01:08:29.605Z,96.32
2018-06-20T01:09:38.267Z,96.22
2018-06-20T01:10:46.911Z,96.37
2018-06-20T01:11:56.421Z,96.51
2018-06-20T01:13:04.823Z,96.47
2018-06-20T01:14:13.480Z,96.7
2018-06-20T01:15:22.120Z,96.61
2018-06-20T01:16:30.778Z,96.51
2018-06-20T01:17:40.212Z,96.32
2018-06-20T01:18:49.392Z,96.66
2018-06-20T01:19:58.034Z,96.37
2018-06-20T01:21:06.682Z,96.32
2018-06-20T01:22:15.321Z,96.42
2018-06-20T01:23:23.971Z,96.42
2018-06-20T01:24:32.624Z,96.51
2018-06-20T01:25:41.274Z,96.32
2018-06-20T01:26:49.928Z,96.32
2018-06-20T01:27:58.563Z,96.61
2018-06-20T01:29:07.212Z,96.47
2018-06-20T01:30:15.870Z,96.51
2018-06-20T01:31:24.517Z,96.66
2018-06-20T01:32:33.160Z,96.37
2018-06-20T01:33:41.806Z,96.32
2018-06-20T01:34:50.454Z,96.51
2018-06-20T01:35:59.110Z,96.32
2018-06-20T01:37:08.021Z,96.42
2018-06-20T01:38:16.670Z,96.22
2018-06-20T01:39:25.318Z,96.37
2018-06-20T01:40:33.971Z,96.32
2018-06-20T01:41:42.612Z,96.32
2018-06-20T01:42:51.261Z,96.42
2018-06-20T01:43:59.905Z,96.51
2018-06-20T01:45:08.546Z,96.89
2018-06-20T01:46:17.196Z,96.99
2018-06-20T01:47:25.845Z,96.99
2018-06-20T01:48:34.497Z,96.61
2018-06-20T01:49:43.140Z,96.89
2018-06-20T01:50:51.791Z,96.42
2018-06-20T01:52:00.706Z,96.61
2018-06-20T01:53:09.353Z,96.42
2018-06-20T01:54:17.999Z,96.8
2018-06-20T01:55:26.651Z,96.89
2018-06-20T01:56:35.297Z,96.51
2018-06-20T01:57:43.948Z,97.09
2018-06-20T01:58:52.591Z,96.89
2018-06-20T02:00:01.239Z,97.09
2018-06-20T02:01:09.886Z,97.09
2018-06-20T02:02:18.539Z,96.99
2018-06-20T02:03:27.188Z,97.47
2018-06-20T02:04:35.831Z,97.09
2018-06-20T02:05:44.480Z,96.99
2018-06-20T02:06:53.125Z,97.09
2018-06-20T02:08:01.780Z,96.89
2018-06-20T02:09:10.422Z,96.89
2018-06-20T02:10:19.075Z,97.47
2018-06-20T02:11:27.725Z,96.99
2018-06-20T02:12:36.377Z,96.61
2018-06-20T02:13:45.026Z,96.89
2018-06-20T02:14:54.209Z,96.89
2018-06-20T02:16:02.855Z,97.47
2018-06-20T02:17:11.510Z,96.61
2018-06-20T02:18:20.165Z,96.61
2018-06-20T02:19:28.806Z,97.09
2018-06-20T02:20:37.715Z,96.51
2018-06-20T02:21:46.624Z,96.7
2018-06-20T02:22:55.277Z,96.89
2018-06-20T02:24:03.925Z,96.7
2018-06-20T02:25:12.574Z,97.19
2018-06-20T02:26:21.218Z,96.89
2018-06-20T02:27:29.870Z,97.09
2018-06-20T02:28:38.516Z,97.09
2018-06-20T02:29:47.163Z,96.99
2018-06-20T02:30:55.815Z,96.89
2018-06-20T02:32:04.460Z,97.09
2018-06-20T02:33:13.380Z,97.09
2018-06-20T02:34:22.028Z,97.09
2018-06-20T02:35:30.949Z,97.47
2018-06-20T02:36:39.622Z,97.28
2018-06-20T02:37:48.246Z,97.28
2018-06-20T02:38:56.897Z,96.99
2018-06-20T02:40:06.127Z,96.99
2018-06-20T02:41:14.744Z,96.89
2018-06-20T02:42:23.393Z,97.19
2018-06-20T02:43:32.047Z,96.7
2018-06-20T02:44:41.223Z,97.09
2018-06-20T02:45:50.151Z,96.99
2018-06-20T02:46:58.805Z,96.89
2018-06-20T02:48:07.725Z,96.7
2018-06-20T02:49:16.370Z,96.89
2018-06-20T02:50:25.024Z,96.99
2018-06-20T02:51:33.673Z,97.47
2018-06-20T02:52:42.877Z,96.7
2018-06-20T02:53:51.498Z,97.47
2018-06-20T02:55:00.148Z,97.28
2018-06-20T02:56:08.797Z,97.28
2018-06-20T02:57:17.449Z,97.66
2018-06-20T02:58:26.105Z,97.76
2018-06-20T02:59:34.761Z,97.38
2018-06-20T03:00:43.671Z,97.19
2018-06-20T03:01:52.368Z,97.28
2018-06-20T03:03:01.487Z,97.57
2018-06-20T03:04:10.682Z,97.47
2018-06-20T03:05:19.607Z,97.62
2018-06-20T03:06:28.445Z,96.89
2018-06-20T03:07:37.101Z,96.94
2018-06-20T03:08:46.301Z,96.8
2018-06-20T03:09:55.221Z,96.89
2018-06-20T03:11:03.871Z,96.99
2018-06-20T03:12:12.786Z,96.89
2018-06-20T03:13:21.433Z,96.94
2018-06-20T03:14:30.086Z,96.7
2018-06-20T03:15:38.746Z,97.38
2018-06-20T03:16:47.670Z,97.24
2018-06-20T03:17:56.319Z,97.33
2018-06-20T03:19:05.228Z,97.28
2018-06-20T03:20:13.882Z,96.94
2018-06-20T03:21:22.528Z,97.57
2018-06-20T03:22:31.183Z,97.66
2018-06-20T03:23:40.360Z,97.47
2018-06-20T03:24:49.271Z,97.66
2018-06-20T03:25:57.915Z,96.61
2018-06-20T03:27:06.573Z,97.14
2018-06-20T03:28:15.219Z,97.47
2018-06-20T03:29:24.132Z,97.33
2018-06-20T03:30:32.776Z,97.14
2018-06-20T03:31:41.962Z,97.28
2018-06-20T03:32:50.873Z,97.33
2018-06-20T03:33:59.522Z,97.19
2018-06-20T03:35:08.173Z,97.57
2018-06-20T03:36:16.818Z,97.57
2018-06-20T03:37:25.471Z,97.38
2018-06-20T03:38:34.114Z,97.52
2018-06-20T03:39:42.768Z,97.38
2018-06-20T03:40:51.408Z,97.38
2018-06-20T03:42:00.066Z,97.19
2018-06-20T03:43:08.710Z,97.38
2018-06-20T03:44:17.363Z,97.47
2018-06-20T03:45:26.003Z,97.14
2018-06-20T03:46:34.655Z,97.28
2018-06-20T03:47:43.305Z,97.28
2018-06-20T03:48:51.963Z,97.28
2018-06-20T03:50:00.608Z,97.09
2018-06-20T03:51:09.249Z,97.09
2018-06-20T03:52:17.895Z,97.62
2018-06-20T03:53:26.543Z,97.57
2018-06-20T03:54:35.199Z,97.28
2018-06-20T03:55:43.844Z,97.33
2018-06-20T03:56:52.495Z,97.28
2018-06-20T03:58:01.136Z,97.24
2018-06-20T03:59:09.793Z,97.28
2018-06-20T04:00:18.437Z,97.24
2018-06-20T04:01:27.089Z,97.33
2018-06-20T04:02:35.728Z,97.47
2018-06-20T04:03:44.650Z,97.71
2018-06-20T04:04:53.297Z,96.99
2018-06-20T04:06:01.954Z,96.85
2018-06-20T04:07:10.871Z,97.04
2018-06-20T04:08:19.544Z,96.66
2018-06-20T04:09:28.173Z,96.75
2018-06-20T04:10:36.827Z,96.94
2018-06-20T04:11:45.745Z,96.85
2018-06-20T04:12:54.383Z,96.66
2018-06-20T04:14:03.035Z,96.85
2018-06-20T04:15:11.685Z,97.33
2018-06-20T04:16:20.342Z,96.66
2018-06-20T04:17:28.987Z,96.66
2018-06-20T04:18:37.640Z,96.66
2018-06-20T04:19:46.284Z,96.66
2018-06-20T04:20:54.941Z,96.66
2018-06-20T04:22:03.584Z,96.56
2018-06-20T04:23:12.510Z,96.47
2018-06-20T04:24:21.422Z,96.56
2018-06-20T04:25:30.080Z,96.66
2018-06-20T04:26:38.726Z,96.47
2018-06-20T04:27:47.371Z,96.56
2018-06-20T04:28:56.017Z,96.56
2018-06-20T04:30:04.669Z,97.04
2018-06-20T04:31:13.590Z,97.04
2018-06-20T04:32:22.235Z,96.47
2018-06-20T04:33:30.885Z,96.56
2018-06-20T04:34:39.560Z,95.89
2018-06-20T04:35:48.181Z,96.47
2018-06-20T04:36:56.824Z,95.5
2018-06-20T04:38:05.476Z,95.6
2018-06-20T04:39:14.116Z,95.12
2018-06-20T04:40:22.768Z,95.4
2018-06-20T04:41:31.678Z,94.93
2018-06-20T04:42:40.328Z,94.45
2018-06-20T04:43:49.228Z,94.93
2018-06-20T04:44:57.875Z,94.83
2018-06-20T04:46:06.810Z,94.88
2018-06-20T04:47:15.462Z,94.88
2018-06-20T04:48:24.110Z,94.78
2018-06-20T04:49:32.749Z,94.11
2018-06-20T04:50:41.671Z,94.49
2018-06-20T04:51:50.325Z,93.82
2018-06-20T04:52:58.978Z,94.4
2018-06-20T04:54:07.611Z,93.73
2018-06-20T04:55:16.264Z,93.63
2018-06-20T04:56:24.913Z,93.34
2018-06-20T04:57:33.587Z,93.15
2018-06-20T04:58:42.210Z,92.96
2018-06-20T04:59:50.868Z,92.47
2018-06-20T05:00:59.512Z,92.91
2018-06-20T05:02:08.173Z,92.67
2018-06-20T05:03:16.819Z,92.33
2018-06-20T05:04:25.461Z,92.13
2018-06-20T05:05:34.111Z,91.75
2018-06-20T05:06:42.753Z,91.85
2018-06-20T05:07:51.416Z,91.85
2018-06-20T05:09:00.319Z,91.27
2018-06-20T05:10:08.973Z,91.56
2018-06-20T05:11:17.616Z,91.36
2018-06-20T05:12:26.556Z,91.08
2018-06-20T05:13:35.177Z,90.89
2018-06-20T05:14:43.833Z,90.98
2018-06-20T05:15:52.732Z,90.98
2018-06-20T05:17:01.391Z,90.5
2018-06-20T05:18:10.039Z,90.21
2018-06-20T05:19:18.688Z,90.31
2018-06-20T05:20:27.602Z,90.06
2018-06-20T05:21:36.515Z,89.78
2018-06-20T05:22:45.537Z,89.68
2018-06-20T05:23:54.184Z,89.1
2018-06-20T05:25:02.840Z,89.29
2018-06-20T05:26:11.480Z,89.1
2018-06-20T05:27:20.129Z,88.81
2018-06-20T05:28:29.046Z,88.24
2018-06-20T05:29:37.709Z,88.14
2018-06-20T05:30:46.343Z,88.47
2018-06-20T05:31:54.992Z,88.18
2018-06-20T05:33:03.640Z,88.28
2018-06-20T05:34:12.295Z,88.28
2018-06-20T05:35:20.938Z,87.51
2018-06-20T05:36:29.592Z,87.22
2018-06-20T05:37:38.501Z,87.46
2018-06-20T05:38:47.160Z,88.04
2018-06-20T05:39:56.385Z,88.32
2018-06-20T05:41:05.035Z,88.61
2018-06-20T05:42:13.680Z,87.46
2018-06-20T05:43:22.327Z,87.74
2018-06-20T05:44:30.984Z,87.84
2018-06-20T05:45:39.637Z,86.98
2018-06-20T05:46:48.560Z,86.98
2018-06-20T05:47:57.495Z,86.49
2018-06-20T05:49:06.152Z,86.78
2018-06-20T05:50:15.063Z,86.4
2018-06-20T05:51:23.711Z,86.49
2018-06-20T05:52:32.351Z,85.91
2018-06-20T05:53:41.009Z,86.01
2018-06-20T05:54:49.917Z,85.34
2018-06-20T05:55:58.574Z,85.14
2018-06-20T05:57:07.219Z,85.34
2018-06-20T05:58:16.135Z,85.47
2018-06-20T05:59:24.797Z,85.38
2018-06-20T06:00:33.445Z,85.47
2018-06-20T06:01:42.358Z,85.09
2018-06-20T06:02:51.006Z,85.19
2018-06-20T06:03:59.653Z,85.38
2018-06-20T06:05:08.355Z,85.38
2018-06-20T06:06:16.961Z,84.52
2018-06-20T06:07:25.875Z,84.22
2018-06-20T06:08:34.525Z,84.52
2018-06-20T06:09:43.174Z,84.61
2018-06-20T06:10:52.092Z,84.7
2018-06-20T06:12:00.767Z,85.09
2018-06-20T06:13:10.113Z,85.19
2018-06-20T06:14:19.029Z,84.9
2018-06-20T06:15:27.678Z,84.32
2018-06-20T06:16:36.326Z,84.17
2018-06-20T06:17:44.974Z,84.42
2018-06-20T06:18:53.628Z,85.38
2018-06-20T06:20:03.061Z,84.46
2018-06-20T06:21:11.718Z,84.32
2018-06-20T06:22:20.378Z,84.42
2018-06-20T06:23:29.296Z,84.32
2018-06-20T06:24:37.957Z,84.52
2018-06-20T06:25:46.596Z,84.32
2018-06-20T06:26:55.250Z,84.22
2018-06-20T06:28:04.165Z,84.61
2018-06-20T06:29:12.820Z,84.61
2018-06-20T06:30:21.467Z,83.84
2018-06-20T06:31:30.121Z,84.03
2018-06-20T06:32:38.769Z,84.36
2018-06-20T06:33:47.457Z,84.61
2018-06-20T06:34:56.111Z,84.36
2018-06-20T06:36:04.764Z,83.78
2018-06-20T06:37:13.414Z,83.3
2018-06-20T06:38:22.063Z,82.72
2018-06-20T06:39:30.718Z,82.34
2018-06-20T06:40:39.367Z,82.92
2018-06-20T06:41:48.020Z,82.72
2018-06-20T06:42:56.666Z,83.3
2018-06-20T06:44:05.321Z,82.24
2018-06-20T06:45:13.974Z,82.92
2018-06-20T06:46:22.886Z,82.39
2018-06-20T06:47:31.795Z,83.11
2018-06-20T06:48:40.449Z,83.11
2018-06-20T06:49:49.218Z,82.59
2018-06-20T06:50:57.746Z,82.87
2018-06-20T06:52:06.390Z,83.26
2018-06-20T06:53:15.049Z,83.36
2018-06-20T06:54:23.963Z,83.16
2018-06-20T06:55:32.616Z,83.55
2018-06-20T06:56:41.266Z,83.36
2018-06-20T06:57:49.910Z,83.36
2018-06-20T06:58:59.086Z,83.74
2018-06-20T07:00:07.737Z,83.45
2018-06-20T07:01:16.392Z,83.26
2018-06-20T07:02:25.037Z,82.59
2018-06-20T07:03:33.955Z,82.34
2018-06-20T07:04:42.608Z,82.14
2018-06-20T07:05:51.258Z,81.85
2018-06-20T07:06:59.906Z,81.76
2018-06-20T07:08:08.560Z,81.27
2018-06-20T07:09:17.511Z,81.85
2018-06-20T07:10:26.881Z,82.14
2018-06-20T07:11:35.535Z,81.41
2018-06-20T07:12:44.182Z,80.83
2018-06-20T07:13:52.839Z,80.93
2018-06-20T07:15:01.494Z,80.45
2018-06-20T07:16:10.409Z,80.93
2018-06-20T07:17:19.061Z,79.97
2018-06-20T07:18:27.711Z,79.14
2018-06-20T07:19:36.363Z,78.46
2018-06-20T07:20:45.027Z,78.75
2018-06-20T07:21:53.935Z,78.46
2018-06-20T07:23:02.591Z,77.59
2018-06-20T07:24:11.458Z,77.98
2018-06-20T07:25:20.065Z,77.3
2018-06-20T07:26:28.972Z,77.21
2018-06-20T07:27:37.626Z,76.82
2018-06-20T07:28:46.270Z,77.11
2018-06-20T07:29:54.934Z,77.3
2018-06-20T07:31:04.205Z,77.59
2018-06-20T07:32:12.865Z,77.3
2018-06-20T07:33:21.516Z,77.3
2018-06-20T07:34:30.237Z,77.59
2018-06-20T07:35:38.956Z,77.69
2018-06-20T07:36:47.463Z,77.88
2018-06-20T07:37:56.126Z,77.78
2018-06-20T07:39:04.769Z,77.21
2018-06-20T07:40:13.428Z,77.44
2018-06-20T07:41:22.079Z,77.34
2018-06-20T07:42:30.743Z,76.28
2018-06-20T07:43:39.387Z,77.05
2018-06-20T07:44:48.042Z,75.99
2018-06-20T07:45:56.691Z,75.6
2018-06-20T07:47:05.351Z,75.79
2018-06-20T07:48:14.263Z,76.18
2018-06-20T07:49:23.177Z,76.37
2018-06-20T07:50:31.829Z,76.09
2018-06-20T07:51:40.765Z,75.22
2018-06-20T07:52:49.431Z,75.6
2018-06-20T07:53:58.075Z,76.37
2018-06-20T07:55:06.735Z,76.47
2018-06-20T07:56:15.380Z,76.57
2018-06-20T07:57:24.043Z,76.76
2018-06-20T07:58:32.691Z,76.72
2018-06-20T07:59:41.346Z,77.15
2018-06-20T08:00:50.056Z,76.86
2018-06-20T08:01:58.652Z,76.53
2018-06-20T08:03:07.570Z,77.53
2018-06-20T08:04:16.224Z,78.11
2018-06-20T08:05:24.868Z,77.15
2018-06-20T08:06:33.525Z,76.57
2018-06-20T08:07:42.181Z,75.79
2018-06-20T08:08:50.837Z,76.57
2018-06-20T08:09:59.492Z,76.09
2018-06-20T08:11:08.135Z,75.89
2018-06-20T08:12:16.792Z,75.89
2018-06-20T08:13:25.439Z,75.12
2018-06-20T08:14:34.102Z,74.64
2018-06-20T08:15:42.753Z,74.68
2018-06-20T08:16:51.410Z,75.06
2018-06-20T08:18:00.321Z,73.8
2018-06-20T08:19:08.979Z,73.8
2018-06-20T08:20:17.627Z,72.94
2018-06-20T08:21:26.280Z,73.52
2018-06-20T08:22:34.926Z,72.68
2018-06-20T08:23:43.583Z,72.49
2018-06-20T08:24:52.235Z,72.2
2018-06-20T08:26:00.887Z,72.68
2018-06-20T08:27:09.536Z,72.2
2018-06-20T08:28:18.187Z,72.68
2018-06-20T08:29:26.843Z,72.88
2018-06-20T08:30:35.495Z,72.78
2018-06-20T08:31:44.144Z,72.72
2018-06-20T08:32:52.793Z,72.3
2018-06-20T08:34:01.451Z,72.3
2018-06-20T08:35:10.101Z,73.07
2018-06-20T08:36:19.282Z,73.26
2018-06-20T08:37:28.201Z,73.52
2018-06-20T08:38:36.857Z,74.68
2018-06-20T08:39:45.506Z,75.16
2018-06-20T08:40:54.163Z,76.09
2018-06-20T08:42:02.813Z,75.16
2018-06-20T08:43:11.468Z,76.03
2018-06-20T08:44:20.397Z,75.45
2018-06-20T08:45:29.318Z,75.54
2018-06-20T08:46:37.977Z,75.06
2018-06-20T08:47:46.619Z,74.38
2018-06-20T08:48:55.272Z,74
2018-06-20T08:50:03.927Z,73.9
2018-06-20T08:51:12.580Z,73.9
2018-06-20T08:52:21.489Z,74.1
2018-06-20T08:53:30.150Z,74.73
2018-06-20T08:54:38.794Z,74.38
2018-06-20T08:55:47.452Z,73.8
2018-06-20T08:56:56.099Z,73.67
2018-06-20T08:58:04.752Z,73.9
2018-06-20T08:59:13.412Z,73.52
2018-06-20T09:00:22.070Z,72.94
2018-06-20T09:01:30.722Z,72.16
2018-06-20T09:02:39.374Z,72.36
2018-06-20T09:03:48.045Z,72.64
2018-06-20T09:04:56.683Z,72.16
2018-06-20T09:06:05.341Z,72.74
2018-06-20T09:07:14.006Z,72.26
2018-06-20T09:08:22.656Z,72.84
2018-06-20T09:09:31.304Z,72.3
2018-06-20T09:10:39.967Z,72.36
2018-06-20T09:11:48.620Z,72.16
2018-06-20T09:12:57.271Z,72.39
2018-06-20T09:14:06.454Z,72.78
2018-06-20T09:15:15.118Z,72.78
2018-06-20T09:16:23.767Z,72.3
2018-06-20T09:17:32.425Z,72.68
2018-06-20T09:18:41.071Z,71.62
2018-06-20T09:19:49.725Z,71.23
2018-06-20T09:20:58.390Z,70.75
2018-06-20T09:22:07.338Z,70.4
2018-06-20T09:23:15.963Z,70.3
2018-06-20T09:24:24.607Z,70.5
2018-06-20T09:25:33.538Z,70.59
2018-06-20T09:26:42.232Z,69.62
2018-06-20T09:27:50.933Z,69.72
2018-06-20T09:28:59.610Z,69.33
2018-06-20T09:30:08.323Z,68.79
2018-06-20T09:31:16.924Z,68.01
2018-06-20T09:32:25.584Z,68.69
2018-06-20T09:33:34.228Z,68.11
2018-06-20T09:34:42.883Z,67.53
2018-06-20T09:35:51.533Z,67.72
2018-06-20T09:37:00.195Z,68.11
2018-06-20T09:38:08.846Z,68.88
2018-06-20T09:39:18.030Z,69.56
2018-06-20T09:40:26.681Z,68.21
2018-06-20T09:41:35.336Z,68.88
2018-06-20T09:42:43.992Z,67.33
2018-06-20T09:43:52.640Z,67.82
2018-06-20T09:45:01.300Z,68.01
2018-06-20T09:46:09.945Z,67.24
2018-06-20T09:47:18.605Z,67.82
2018-06-20T09:48:27.514Z,66.95
2018-06-20T09:49:36.174Z,67.46
2018-06-20T09:50:45.084Z,65.72
2018-06-20T09:51:54.011Z,64.3
2018-06-20T09:53:02.665Z,64.98
2018-06-20T09:54:11.634Z,64.72
2018-06-20T09:55:20.534Z,64.72
2018-06-20T09:56:29.190Z,63.95
2018-06-20T09:57:38.116Z,64.04
2018-06-20T09:58:46.771Z,63.37
2018-06-20T09:59:55.449Z,63.17
2018-06-20T10:01:04.073Z,64.34
2018-06-20T10:02:12.730Z,64.69
2018-06-20T10:03:21.379Z,65.85
2018-06-20T10:04:30.044Z,65.75
2018-06-20T10:05:38.687Z,65.85
2018-06-20T10:06:47.636Z,65.56
2018-06-20T10:07:56.276Z,65.56
2018-06-20T10:09:04.943Z,65.4
2018-06-20T10:10:13.849Z,63.56
2018-06-20T10:11:22.508Z,63.95
2018-06-20T10:12:31.158Z,63.56
2018-06-20T10:13:39.820Z,62.49
2018-06-20T10:14:48.474Z,62.01
2018-06-20T10:15:57.125Z,61.82
2018-06-20T10:17:06.047Z,62.62
2018-06-20T10:18:14.703Z,62.98
2018-06-20T10:19:23.347Z,62.79
2018-06-20T10:20:32.006Z,62.4
2018-06-20T10:21:40.662Z,62.88
2018-06-20T10:22:49.590Z,64.24
2018-06-20T10:23:58.240Z,62.91
2018-06-20T10:25:07.168Z,62.33
2018-06-20T10:26:15.820Z,62.52
2018-06-20T10:27:24.482Z,62.36
2018-06-20T10:28:33.170Z,61.36
2018-06-20T10:29:41.786Z,61.39
2018-06-20T10:30:50.438Z,61.68
2018-06-20T10:31:59.100Z,62.95
2018-06-20T10:33:07.750Z,61.26
2018-06-20T10:34:16.533Z,62.13
2018-06-20T10:35:25.056Z,62.91
2018-06-20T10:36:33.972Z,62.91
2018-06-20T10:37:42.904Z,63.46
2018-06-20T10:38:51.823Z,63.85
2018-06-20T10:40:00.544Z,63.27
2018-06-20T10:41:09.391Z,63.56
2018-06-20T10:42:18.056Z,63.65
2018-06-20T10:43:26.965Z,63.37
2018-06-20T10:44:35.623Z,62.98
2018-06-20T10:45:44.532Z,62.4
2018-06-20T10:46:53.462Z,62.43
2018-06-20T10:48:02.111Z,62.82
2018-06-20T10:49:10.768Z,62.62
2018-06-20T10:50:19.723Z,63.98
2018-06-20T10:51:28.379Z,64.75
2018-06-20T10:52:37.304Z,64.56
2018-06-20T10:53:46.223Z,62.82
2018-06-20T10:54:54.881Z,61.36
2018-06-20T10:56:03.792Z,61.46
2018-06-20T10:57:12.714Z,62.04
2018-06-20T10:58:21.366Z,62.04
2018-06-20T10:59:30.029Z,61
2018-06-20T11:00:38.685Z,61.36
2018-06-20T11:01:47.334Z,61.29
2018-06-20T11:02:55.985Z,60.91
2018-06-20T11:04:04.649Z,59.84
2018-06-20T11:05:13.292Z,62.07
2018-06-20T11:06:21.952Z,62.75
2018-06-20T11:07:30.602Z,61.88
2018-06-20T11:08:39.271Z,61.78
2018-06-20T11:09:47.924Z,61.49
2018-06-20T11:10:56.569Z,61
2018-06-20T11:12:05.221Z,60.71
2018-06-20T11:13:13.877Z,61.07
2018-06-20T11:14:22.799Z,60.71
2018-06-20T11:15:31.450Z,61.65
2018-06-20T11:16:40.105Z,61.65
2018-06-20T11:17:48.753Z,61.36
2018-06-20T11:18:57.414Z,61.55
2018-06-20T11:20:06.069Z,61.85
2018-06-20T11:21:14.723Z,61.82
2018-06-20T11:22:23.371Z,61.82
2018-06-20T11:23:32.037Z,62.79
2018-06-20T11:24:40.683Z,62.3
2018-06-20T11:25:49.340Z,62.3
2018-06-20T11:26:57.989Z,64.14
2018-06-20T11:28:06.646Z,62.69
2018-06-20T11:29:15.362Z,61.82
2018-06-20T11:30:24.347Z,62.01
2018-06-20T11:31:33.002Z,62.69
2018-06-20T11:32:41.650Z,62.49
2018-06-20T11:33:50.570Z,62.49
2018-06-20T11:34:59.489Z,62.72
2018-06-20T11:36:08.148Z,62.62
2018-06-20T11:37:17.120Z,62.88
2018-06-20T11:38:25.775Z,62.1
2018-06-20T11:39:34.767Z,61.26
2018-06-20T11:40:43.348Z,60.88
2018-06-20T11:41:51.998Z,60.71
2018-06-20T11:43:00.657Z,60.13
2018-06-20T11:44:09.312Z,60.42
2018-06-20T11:45:18.237Z,60.81
2018-06-20T11:46:26.888Z,60.81
2018-06-20T11:47:35.549Z,61.88
2018-06-20T11:48:44.198Z,60.81
2018-06-20T11:49:52.903Z,60.91
2018-06-20T11:51:01.511Z,60.61
2018-06-20T11:52:10.431Z,60.03
2018-06-20T11:53:19.092Z,59.74
2018-06-20T11:54:28.004Z,59.58
2018-06-20T11:55:36.663Z,59.64
2018-06-20T11:56:45.321Z,60.03
2018-06-20T11:57:54.246Z,60.74
2018-06-20T11:59:02.891Z,59.06
2018-06-20T12:00:11.550Z,58.9
2018-06-20T12:01:20.201Z,58.7
2018-06-20T12:02:28.858Z,57.96
2018-06-20T12:03:37.507Z,58.34
2018-06-20T12:04:46.163Z,58.83
2018-06-20T12:05:54.816Z,59.19
2018-06-20T12:07:03.475Z,58.7
2018-06-20T12:08:12.132Z,59.19
2018-06-20T12:09:21.045Z,59
2018-06-20T12:10:29.960Z,58.41
2018-06-20T12:11:39.140Z,58.8
2018-06-20T12:12:47.795Z,58.9
2018-06-20T12:13:56.451Z,59.77
2018-06-20T12:15:05.102Z,59.97
2018-06-20T12:16:14.295Z,59.03
2018-06-20T12:17:22.940Z,58.44
2018-06-20T12:18:31.604Z,57.28
2018-06-20T12:19:40.255Z,57.28
2018-06-20T12:20:48.914Z,57.18
2018-06-20T12:21:57.615Z,58.34
2018-06-20T12:23:06.517Z,58.67
2018-06-20T12:24:15.178Z,58.86
2018-06-20T12:25:23.832Z,57.01
2018-06-20T12:26:32.486Z,57.5
2018-06-20T12:27:41.150Z,57.79
2018-06-20T12:28:49.809Z,58.08
2018-06-20T12:29:58.458Z,58.08
2018-06-20T12:31:07.122Z,56.92
2018-06-20T12:32:15.765Z,57.89
2018-06-20T12:33:24.426Z,56.24
2018-06-20T12:34:33.080Z,56.14
2018-06-20T12:35:41.740Z,55.98
2018-06-20T12:36:50.382Z,56.72
2018-06-20T12:37:59.040Z,57.11
2018-06-20T12:39:07.690Z,56.5
2018-06-20T12:40:16.623Z,55.85
2018-06-20T12:41:25.279Z,56.98
2018-06-20T12:42:34.194Z,55.82
2018-06-20T12:43:42.846Z,55.65
2018-06-20T12:44:51.497Z,55.75
2018-06-20T12:46:00.166Z,55.94
2018-06-20T12:47:08.814Z,56.24
2018-06-20T12:48:17.471Z,55.88
2018-06-20T12:49:26.120Z,55.46
2018-06-20T12:50:34.782Z,55.75
2018-06-20T12:51:43.433Z,55.75
2018-06-20T12:52:52.091Z,55.94
2018-06-20T12:54:00.738Z,57.01
2018-06-20T12:55:09.403Z,57.01
2018-06-20T12:56:18.054Z,56.85
2018-06-20T12:57:26.710Z,56.75
2018-06-20T12:58:35.360Z,56.46
2018-06-20T12:59:44.018Z,55.78
2018-06-20T13:00:52.678Z,54.22
2018-06-20T13:02:01.607Z,55
2018-06-20T13:03:10.264Z,55.49
2018-06-20T13:04:18.911Z,56.07
2018-06-20T13:05:27.570Z,55.39
2018-06-20T13:06:36.225Z,55.58
2018-06-20T13:07:44.887Z,55.19
2018-06-20T13:08:53.531Z,54.71
2018-06-20T13:10:02.461Z,54.54
2018-06-20T13:11:11.114Z,54.22
2018-06-20T13:12:19.776Z,53.93
2018-06-20T13:13:28.425Z,54.64
2018-06-20T13:14:37.082Z,54.71
2018-06-20T13:15:45.735Z,54.52
2018-06-20T13:16:54.394Z,53.96
2018-06-20T13:18:03.047Z,53.96
2018-06-20T13:19:11.704Z,54.64
2018-06-20T13:20:20.357Z,54.64
2018-06-20T13:21:29.038Z,54.05
2018-06-20T13:22:37.936Z,54.35
2018-06-20T13:23:46.846Z,53.08
2018-06-20T13:24:55.500Z,53.18
2018-06-20T13:26:04.149Z,53.86
2018-06-20T13:27:12.811Z,53.38
2018-06-20T13:28:21.466Z,53.86
2018-06-20T13:29:30.386Z,54.35
2018-06-20T13:30:39.037Z,53.86
2018-06-20T13:31:47.696Z,54.15
2018-06-20T13:32:56.351Z,55
2018-06-20T13:34:05.275Z,55
2018-06-20T13:35:13.928Z,54.71
2018-06-20T13:36:22.849Z,54.61
2018-06-20T13:37:31.509Z,54.32
2018-06-20T13:38:40.162Z,54.52
2018-06-20T13:39:48.876Z,55.39
2018-06-20T13:40:57.469Z,55.68
2018-06-20T13:42:06.128Z,55.88
2018-06-20T13:43:14.783Z,56.46
2018-06-20T13:44:23.446Z,55.78
2018-06-20T13:45:32.093Z,54.9
2018-06-20T13:46:40.749Z,55.19
2018-06-20T13:47:49.406Z,54.64
2018-06-20T13:48:58.326Z,54.35
2018-06-20T13:50:06.979Z,53.38
2018-06-20T13:51:15.637Z,53.77
2018-06-20T13:52:24.292Z,52.79
2018-06-20T13:53:32.946Z,51.82
2018-06-20T13:54:41.598Z,53.11
2018-06-20T13:55:50.252Z,52.33
2018-06-20T13:56:58.908Z,52.89
2018-06-20T13:58:07.560Z,52.14
2018-06-20T13:59:16.267Z,52.59
2018-06-20T14:00:24.888Z,52.31
2018-06-20T14:01:33.538Z,53.08
2018-06-20T14:02:42.190Z,52.11
2018-06-20T14:03:50.848Z,52.98
2018-06-20T14:04:59.515Z,52.59
2018-06-20T14:06:08.164Z,51.45
2018-06-20T14:07:17.343Z,52.11
2018-06-20T14:08:26.009Z,52.59
2018-06-20T14:09:34.663Z,52.33
2018-06-20T14:10:43.323Z,53.28
2018-06-20T14:11:52.244Z,51.45
2018-06-20T14:13:01.166Z,52.21
2018-06-20T14:14:09.824Z,52.62
2018-06-20T14:15:18.479Z,51.43
2018-06-20T14:16:27.132Z,51.14
2018-06-20T14:17:35.793Z,52.21
2018-06-20T14:18:44.446Z,51.53
2018-06-20T14:19:53.100Z,51.43
2018-06-20T14:21:01.754Z,52.37
2018-06-20T14:22:10.416Z,52.69
2018-06-20T14:23:19.068Z,53.25
2018-06-20T14:24:27.724Z,52.69
2018-06-20T14:25:36.375Z,52.98
2018-06-20T14:26:45.094Z,52.59
2018-06-20T14:27:54.008Z,52.31
2018-06-20T14:29:02.664Z,51.72
2018-06-20T14:30:11.574Z,52.11
2018-06-20T14:31:20.229Z,51.62
2018-06-20T14:32:28.884Z,52.59
2018-06-20T14:33:37.543Z,52.21
2018-06-20T14:34:46.200Z,51.6
2018-06-20T14:35:54.849Z,52.11
2018-06-20T14:37:03.509Z,52.11
2018-06-20T14:38:12.163Z,51.33
2018-06-20T14:39:21.347Z,51.23
2018-06-20T14:40:29.997Z,51.82
2018-06-20T14:41:38.654Z,51.62
2018-06-20T14:42:47.308Z,52.69
2018-06-20T14:43:55.969Z,52.98
2018-06-20T14:45:04.620Z,51.53
2018-06-20T14:46:13.807Z,52.31
2018-06-20T14:47:22.461Z,52.21
2018-06-20T14:48:31.123Z,52.4